sensor_id;sensor_type;location;lat;lon;timestamp;pressure;altitude;pressure_sealevel;temperature;humidity
22964;BME280;11648;49.306;6.934;2022-08-19T00:02:01;98126.03;;;26.64;52.32
22964;BME280;11648;49.306;6.934;2022-08-19T00:04:31;98120.50;;;26.66;52.78
22964;BME280;11648;49.306;6.934;2022-08-19T00:06:59;98123.34;;;26.64;52.58
22964;BME280;11648;49.306;6.934;2022-08-19T00:09:28;98124.91;;;26.67;52.54
22964;BME280;11648;49.306;6.934;2022-08-19T00:11:56;98120.63;;;26.64;52.62
22964;BME280;11648;49.306;6.934;2022-08-19T00:14:25;98124.56;;;26.60;52.37
22964;BME280;11648;49.306;6.934;2022-08-19T00:16:53;98122.13;;;26.57;52.56
22964;BME280;11648;49.306;6.934;2022-08-19T00:19:21;98124.19;;;26.53;52.59
22964;BME280;11648;49.306;6.934;2022-08-19T00:21:48;98126.28;;;26.61;52.19
22964;BME280;11648;49.306;6.934;2022-08-19T00:24:16;98114.38;;;26.64;52.64
22964;BME280;11648;49.306;6.934;2022-08-19T00:26:44;98111.75;;;26.73;52.33
22964;BME280;11648;49.306;6.934;2022-08-19T00:29:14;98116.31;;;26.73;52.19
22964;BME280;11648;49.306;6.934;2022-08-19T00:31:41;98111.03;;;26.71;52.51
22964;BME280;11648;49.306;6.934;2022-08-19T00:34:10;98114.25;;;26.65;52.60
22964;BME280;11648;49.306;6.934;2022-08-19T00:36:38;98116.47;;;26.60;52.80
22964;BME280;11648;49.306;6.934;2022-08-19T00:39:06;98120.13;;;26.59;52.92
22964;BME280;11648;49.306;6.934;2022-08-19T00:41:32;98128.13;;;26.61;52.71
22964;BME280;11648;49.306;6.934;2022-08-19T00:44:15;98134.75;;;26.57;53.32
22964;BME280;11648;49.306;6.934;2022-08-19T00:46:44;98127.16;;;26.50;52.92
22964;BME280;11648;49.306;6.934;2022-08-19T00:49:39;98120.13;;;26.48;53.01
22964;BME280;11648;49.306;6.934;2022-08-19T00:52:23;98121.50;;;26.53;53.04
22964;BME280;11648;49.306;6.934;2022-08-19T00:54:51;98119.66;;;26.54;53.47
22964;BME280;11648;49.306;6.934;2022-08-19T00:57:24;98123.44;;;26.51;53.77
22964;BME280;11648;49.306;6.934;2022-08-19T00:59:55;98115.25;;;26.53;53.20
22964;BME280;11648;49.306;6.934;2022-08-19T01:02:30;98115.34;;;26.51;53.48
22964;BME280;11648;49.306;6.934;2022-08-19T01:04:58;98098.53;;;26.48;53.51
22964;BME280;11648;49.306;6.934;2022-08-19T01:07:25;98104.56;;;26.40;53.12
22964;BME280;11648;49.306;6.934;2022-08-19T01:09:53;98107.25;;;26.40;53.26
22964;BME280;11648;49.306;6.934;2022-08-19T01:12:20;98112.53;;;26.42;53.04
22964;BME280;11648;49.306;6.934;2022-08-19T01:14:48;98110.72;;;26.42;53.15
22964;BME280;11648;49.306;6.934;2022-08-19T01:17:15;98111.69;;;26.30;52.61
22964;BME280;11648;49.306;6.934;2022-08-19T01:19:45;98111.44;;;26.33;53.27
22964;BME280;11648;49.306;6.934;2022-08-19T01:22:34;98113.06;;;26.36;53.26
22964;BME280;11648;49.306;6.934;2022-08-19T01:25:06;98111.94;;;26.38;53.28
22964;BME280;11648;49.306;6.934;2022-08-19T01:27:44;98110.72;;;26.42;53.03
22964;BME280;11648;49.306;6.934;2022-08-19T01:30:16;98117.22;;;26.40;52.75
22964;BME280;11648;49.306;6.934;2022-08-19T01:32:43;98111.94;;;26.27;53.26
22964;BME280;11648;49.306;6.934;2022-08-19T01:35:11;98111.22;;;26.25;53.17
22964;BME280;11648;49.306;6.934;2022-08-19T01:40:13;98114.22;;;26.10;53.30
22964;BME280;11648;49.306;6.934;2022-08-19T01:42:40;98114.72;;;26.03;53.41
22964;BME280;11648;49.306;6.934;2022-08-19T01:45:08;98115.34;;;26.07;53.38
22964;BME280;11648;49.306;6.934;2022-08-19T01:47:36;98110.16;;;26.15;52.87
22964;BME280;11648;49.306;6.934;2022-08-19T01:50:06;98112.16;;;26.13;53.11
22964;BME280;11648;49.306;6.934;2022-08-19T01:52:35;98113.97;;;26.13;53.20
22964;BME280;11648;49.306;6.934;2022-08-19T01:55:06;98124.16;;;26.09;53.63
22964;BME280;11648;49.306;6.934;2022-08-19T01:57:33;98115.59;;;26.04;53.72
22964;BME280;11648;49.306;6.934;2022-08-19T02:00:00;98115.94;;;26.11;53.41
22964;BME280;11648;49.306;6.934;2022-08-19T02:02:37;98111.53;;;26.10;53.40
22964;BME280;11648;49.306;6.934;2022-08-19T02:05:04;98111.88;;;26.05;53.64
22964;BME280;11648;49.306;6.934;2022-08-19T02:07:38;98119.75;;;25.97;53.55
22964;BME280;11648;49.306;6.934;2022-08-19T02:10:11;98121.22;;;25.90;53.42
22964;BME280;11648;49.306;6.934;2022-08-19T02:12:42;98108.56;;;25.90;53.57
22964;BME280;11648;49.306;6.934;2022-08-19T02:15:09;98115.69;;;25.91;53.39
22964;BME280;11648;49.306;6.934;2022-08-19T02:17:36;98123.16;;;25.88;53.47
22964;BME280;11648;49.306;6.934;2022-08-19T02:20:03;98115.31;;;25.85;53.53
22964;BME280;11648;49.306;6.934;2022-08-19T02:22:32;98122.44;;;25.86;53.82
22964;BME280;11648;49.306;6.934;2022-08-19T02:24:58;98122.03;;;25.90;53.41
22964;BME280;11648;49.306;6.934;2022-08-19T02:27:26;98119.25;;;25.92;53.73
22964;BME280;11648;49.306;6.934;2022-08-19T02:29:53;98108.34;;;25.93;53.69
22964;BME280;11648;49.306;6.934;2022-08-19T02:32:19;98118.34;;;25.80;53.77
22964;BME280;11648;49.306;6.934;2022-08-19T02:34:47;98126.09;;;25.85;53.62
22964;BME280;11648;49.306;6.934;2022-08-19T02:37:14;98128.78;;;25.85;53.27
22964;BME280;11648;49.306;6.934;2022-08-19T02:40:00;98126.78;;;25.76;53.10
22964;BME280;11648;49.306;6.934;2022-08-19T02:42:28;98130.50;;;25.86;52.88
22964;BME280;11648;49.306;6.934;2022-08-19T02:44:55;98120.91;;;25.71;53.38
22964;BME280;11648;49.306;6.934;2022-08-19T02:47:22;98126.03;;;25.63;53.45
22964;BME280;11648;49.306;6.934;2022-08-19T02:49:49;98126.91;;;25.63;54.26
22964;BME280;11648;49.306;6.934;2022-08-19T02:52:16;98123.59;;;25.71;54.11
22964;BME280;11648;49.306;6.934;2022-08-19T02:54:43;98132.03;;;25.66;54.76
22964;BME280;11648;49.306;6.934;2022-08-19T02:57:10;98128.59;;;25.53;55.33
22964;BME280;11648;49.306;6.934;2022-08-19T02:59:37;98141.22;;;25.40;55.49
22964;BME280;11648;49.306;6.934;2022-08-19T03:02:04;98136.94;;;25.37;55.41
22964;BME280;11648;49.306;6.934;2022-08-19T03:04:30;98134.44;;;25.23;55.74
22964;BME280;11648;49.306;6.934;2022-08-19T03:06:57;98135.75;;;25.18;55.85
22964;BME280;11648;49.306;6.934;2022-08-19T03:09:37;98136.34;;;25.10;55.93
22964;BME280;11648;49.306;6.934;2022-08-19T03:12:04;98135.56;;;25.08;56.21
22964;BME280;11648;49.306;6.934;2022-08-19T03:14:33;98143.31;;;25.13;55.89
22964;BME280;11648;49.306;6.934;2022-08-19T03:17:03;98142.16;;;25.28;55.65
22964;BME280;11648;49.306;6.934;2022-08-19T03:19:31;98136.94;;;25.37;55.63
22964;BME280;11648;49.306;6.934;2022-08-19T03:21:58;98144.53;;;25.32;55.40
22964;BME280;11648;49.306;6.934;2022-08-19T03:24:25;98145.09;;;25.25;55.83
22964;BME280;11648;49.306;6.934;2022-08-19T03:26:54;98136.16;;;25.24;55.74
22964;BME280;11648;49.306;6.934;2022-08-19T03:29:28;98136.16;;;25.24;55.90
22964;BME280;11648;49.306;6.934;2022-08-19T03:32:02;98142.41;;;25.25;55.79
22964;BME280;11648;49.306;6.934;2022-08-19T03:34:31;98135.41;;;25.22;55.59
22964;BME280;11648;49.306;6.934;2022-08-19T03:37:04;98137.75;;;25.27;55.68
22964;BME280;11648;49.306;6.934;2022-08-19T03:39:31;98136.03;;;25.26;55.54
22964;BME280;11648;49.306;6.934;2022-08-19T03:41:58;98135.34;;;25.11;56.00
22964;BME280;11648;49.306;6.934;2022-08-19T03:44:48;98143.38;;;25.00;56.57
22964;BME280;11648;49.306;6.934;2022-08-19T03:47:15;98149.34;;;24.92;56.81
22964;BME280;11648;49.306;6.934;2022-08-19T03:49:43;98156.84;;;25.00;56.54
22964;BME280;11648;49.306;6.934;2022-08-19T03:52:10;98143.03;;;25.28;55.76
22964;BME280;11648;49.306;6.934;2022-08-19T03:54:37;98148.81;;;25.11;55.98
22964;BME280;11648;49.306;6.934;2022-08-19T03:57:05;98146.56;;;25.05;56.31
22964;BME280;11648;49.306;6.934;2022-08-19T03:59:33;98156.72;;;25.01;56.21
22964;BME280;11648;49.306;6.934;2022-08-19T04:02:05;98145.47;;;25.07;56.14
22964;BME280;11648;49.306;6.934;2022-08-19T04:04:39;98163.88;;;24.90;56.32
22964;BME280;11648;49.306;6.934;2022-08-19T04:07:07;98162.34;;;24.98;56.25
22964;BME280;11648;49.306;6.934;2022-08-19T04:09:36;98160.19;;;25.03;55.91
22964;BME280;11648;49.306;6.934;2022-08-19T04:12:04;98160.50;;;24.99;55.54
22964;BME280;11648;49.306;6.934;2022-08-19T04:14:31;98166.34;;;24.93;55.83
22964;BME280;11648;49.306;6.934;2022-08-19T04:17:00;98161.63;;;24.84;55.99
22964;BME280;11648;49.306;6.934;2022-08-19T04:19:29;98172.94;;;24.76;56.06
22964;BME280;11648;49.306;6.934;2022-08-19T04:21:56;98173.88;;;24.75;56.26
22964;BME280;11648;49.306;6.934;2022-08-19T04:24:23;98166.44;;;24.79;56.37
22964;BME280;11648;49.306;6.934;2022-08-19T04:26:50;98161.41;;;24.74;56.37
22964;BME280;11648;49.306;6.934;2022-08-19T04:29:20;98162.63;;;24.70;56.69
22964;BME280;11648;49.306;6.934;2022-08-19T04:31:49;98162.50;;;24.84;56.22
22964;BME280;11648;49.306;6.934;2022-08-19T04:34:19;98164.16;;;24.98;55.98
22964;BME280;11648;49.306;6.934;2022-08-19T04:36:49;98167.25;;;25.04;55.71
22964;BME280;11648;49.306;6.934;2022-08-19T04:39:22;98170.25;;;25.13;55.62
22964;BME280;11648;49.306;6.934;2022-08-19T04:41:49;98159.38;;;25.14;55.57
22964;BME280;11648;49.306;6.934;2022-08-19T04:44:35;98157.06;;;25.44;54.94
22964;BME280;11648;49.306;6.934;2022-08-19T04:47:12;98152.03;;;25.16;55.48
22964;BME280;11648;49.306;6.934;2022-08-19T04:49:38;98161.16;;;25.02;55.94
22964;BME280;11648;49.306;6.934;2022-08-19T04:52:05;98167.41;;;25.03;56.29
22964;BME280;11648;49.306;6.934;2022-08-19T04:54:32;98167.91;;;25.08;56.13
22964;BME280;11648;49.306;6.934;2022-08-19T04:57:06;98169.09;;;25.04;55.93
22964;BME280;11648;49.306;6.934;2022-08-19T04:59:36;98171.69;;;25.05;56.15
22964;BME280;11648;49.306;6.934;2022-08-19T05:02:03;98182.47;;;25.05;56.03
22964;BME280;11648;49.306;6.934;2022-08-19T05:04:31;98176.53;;;25.00;56.20
22964;BME280;11648;49.306;6.934;2022-08-19T05:07:00;98180.09;;;25.01;56.19
22964;BME280;11648;49.306;6.934;2022-08-19T05:09:29;98173.41;;;25.06;56.28
22964;BME280;11648;49.306;6.934;2022-08-19T05:12:16;98179.53;;;25.08;56.03
22964;BME280;11648;49.306;6.934;2022-08-19T05:14:44;98184.13;;;24.95;55.72
22964;BME280;11648;49.306;6.934;2022-08-19T05:17:13;98185.16;;;25.05;55.55
22964;BME280;11648;49.306;6.934;2022-08-19T05:19:59;98185.78;;;25.09;55.30
22964;BME280;11648;49.306;6.934;2022-08-19T05:22:46;98187.28;;;25.13;55.53
22964;BME280;11648;49.306;6.934;2022-08-19T05:25:17;98185.94;;;25.19;55.43
22964;BME280;11648;49.306;6.934;2022-08-19T05:27:47;98183.91;;;25.22;54.94
22964;BME280;11648;49.306;6.934;2022-08-19T05:30:15;98183.47;;;25.28;55.29
22964;BME280;11648;49.306;6.934;2022-08-19T05:32:42;98193.28;;;25.40;54.84
22964;BME280;11648;49.306;6.934;2022-08-19T05:35:09;98197.97;;;25.38;55.22
22964;BME280;11648;49.306;6.934;2022-08-19T05:37:36;98200.50;;;25.40;55.33
22964;BME280;11648;49.306;6.934;2022-08-19T05:40:03;98202.41;;;25.50;55.32
22964;BME280;11648;49.306;6.934;2022-08-19T05:42:30;98205.19;;;25.62;54.59
22964;BME280;11648;49.306;6.934;2022-08-19T05:44:57;98200.06;;;25.70;54.29
22964;BME280;11648;49.306;6.934;2022-08-19T05:47:24;98205.22;;;25.73;54.08
22964;BME280;11648;49.306;6.934;2022-08-19T05:49:51;98194.22;;;25.76;54.18
22964;BME280;11648;49.306;6.934;2022-08-19T05:52:18;98195.28;;;25.97;53.51
22964;BME280;11648;49.306;6.934;2022-08-19T05:54:52;98191.84;;;26.06;53.47
22964;BME280;11648;49.306;6.934;2022-08-19T05:57:23;98190.41;;;26.13;53.15
22964;BME280;11648;49.306;6.934;2022-08-19T05:59:50;98201.97;;;26.26;53.26
22964;BME280;11648;49.306;6.934;2022-08-19T06:02:27;98200.66;;;26.32;53.21
22964;BME280;11648;49.306;6.934;2022-08-19T06:04:54;98212.28;;;26.21;52.79
22964;BME280;11648;49.306;6.934;2022-08-19T06:07:21;98205.66;;;26.25;53.16
22964;BME280;11648;49.306;6.934;2022-08-19T06:09:48;98210.16;;;26.14;52.98
22964;BME280;11648;49.306;6.934;2022-08-19T06:12:33;98212.47;;;26.07;53.14
22964;BME280;11648;49.306;6.934;2022-08-19T06:15:12;98212.53;;;26.18;52.59
22964;BME280;11648;49.306;6.934;2022-08-19T06:17:40;98216.72;;;26.22;52.97
22964;BME280;11648;49.306;6.934;2022-08-19T06:20:12;98216.00;;;26.42;52.69
22964;BME280;11648;49.306;6.934;2022-08-19T06:22:41;98226.03;;;26.51;52.36
22964;BME280;11648;49.306;6.934;2022-08-19T06:25:09;98229.25;;;26.57;51.57
22964;BME280;11648;49.306;6.934;2022-08-19T06:27:36;98226.81;;;26.65;51.56
22964;BME280;11648;49.306;6.934;2022-08-19T06:30:14;98236.66;;;26.88;51.32
22964;BME280;11648;49.306;6.934;2022-08-19T06:32:41;98244.91;;;26.86;51.28
22964;BME280;11648;49.306;6.934;2022-08-19T06:35:09;98245.00;;;27.18;50.45
22964;BME280;11648;49.306;6.934;2022-08-19T06:37:36;98243.59;;;27.46;50.13
22964;BME280;11648;49.306;6.934;2022-08-19T06:40:09;98235.59;;;27.87;49.67
22964;BME280;11648;49.306;6.934;2022-08-19T06:42:37;98246.50;;;27.97;49.03
22964;BME280;11648;49.306;6.934;2022-08-19T06:45:20;98237.28;;;28.20;48.25
22964;BME280;11648;49.306;6.934;2022-08-19T06:47:52;98240.78;;;28.32;47.86
22964;BME280;11648;49.306;6.934;2022-08-19T06:50:25;98247.47;;;28.69;47.47
22964;BME280;11648;49.306;6.934;2022-08-19T06:52:52;98246.47;;;29.10;46.53
22964;BME280;11648;49.306;6.934;2022-08-19T06:55:19;98228.38;;;29.70;45.35
22964;BME280;11648;49.306;6.934;2022-08-19T06:57:46;98242.97;;;30.17;43.77
22964;BME280;11648;49.306;6.934;2022-08-19T07:00:14;98235.03;;;30.62;42.56
22964;BME280;11648;49.306;6.934;2022-08-19T07:02:42;98231.38;;;30.90;42.25
22964;BME280;11648;49.306;6.934;2022-08-19T07:05:18;98233.56;;;31.41;41.25
22964;BME280;11648;49.306;6.934;2022-08-19T07:07:45;98230.88;;;32.21;39.56
22964;BME280;11648;49.306;6.934;2022-08-19T07:10:13;98230.81;;;32.83;37.96
22964;BME280;11648;49.306;6.934;2022-08-19T07:12:40;98240.53;;;32.59;38.65
22964;BME280;11648;49.306;6.934;2022-08-19T07:15:08;98228.03;;;32.74;38.35
22964;BME280;11648;49.306;6.934;2022-08-19T07:17:37;98236.00;;;32.68;38.28
22964;BME280;11648;49.306;6.934;2022-08-19T07:20:07;98243.63;;;32.90;37.68
22964;BME280;11648;49.306;6.934;2022-08-19T07:22:39;98239.09;;;32.73;38.38
22964;BME280;11648;49.306;6.934;2022-08-19T07:25:08;98238.88;;;32.92;37.83
22964;BME280;11648;49.306;6.934;2022-08-19T07:27:36;98229.63;;;33.11;37.79
22964;BME280;11648;49.306;6.934;2022-08-19T07:30:07;98234.28;;;33.26;37.88
22964;BME280;11648;49.306;6.934;2022-08-19T07:32:38;98232.56;;;33.67;37.52
22964;BME280;11648;49.306;6.934;2022-08-19T07:35:06;98233.09;;;33.71;36.77
22964;BME280;11648;49.306;6.934;2022-08-19T07:37:33;98225.09;;;34.10;36.22
22964;BME280;11648;49.306;6.934;2022-08-19T07:40:03;98232.13;;;34.77;34.89
22964;BME280;11648;49.306;6.934;2022-08-19T07:42:30;98224.16;;;35.06;34.45
22964;BME280;11648;49.306;6.934;2022-08-19T07:44:58;98215.97;;;35.45;33.53
22964;BME280;11648;49.306;6.934;2022-08-19T07:47:25;98217.63;;;35.62;33.59
22964;BME280;11648;49.306;6.934;2022-08-19T07:50:12;98222.13;;;35.47;33.55
22964;BME280;11648;49.306;6.934;2022-08-19T07:52:39;98223.84;;;36.02;32.37
22964;BME280;11648;49.306;6.934;2022-08-19T07:55:09;98215.16;;;37.10;30.46
22964;BME280;11648;49.306;6.934;2022-08-19T07:57:56;98217.19;;;37.67;29.94
22964;BME280;11648;49.306;6.934;2022-08-19T08:00:23;98214.88;;;38.06;29.71
22964;BME280;11648;49.306;6.934;2022-08-19T08:02:51;98212.03;;;38.91;27.61
22964;BME280;11648;49.306;6.934;2022-08-19T08:05:22;98204.59;;;38.85;28.32
22964;BME280;11648;49.306;6.934;2022-08-19T08:08:11;98204.44;;;39.34;27.45
22964;BME280;11648;49.306;6.934;2022-08-19T08:10:58;98198.41;;;40.52;25.41
22964;BME280;11648;49.306;6.934;2022-08-19T08:13:26;98206.66;;;41.11;24.86
22964;BME280;11648;49.306;6.934;2022-08-19T08:15:53;98205.09;;;41.42;24.12
22964;BME280;11648;49.306;6.934;2022-08-19T08:18:25;98208.53;;;41.75;23.74
22964;BME280;11648;49.306;6.934;2022-08-19T08:20:56;98204.66;;;41.31;24.80
22964;BME280;11648;49.306;6.934;2022-08-19T08:23:23;98207.44;;;41.82;24.26
22964;BME280;11648;49.306;6.934;2022-08-19T08:25:56;98202.88;;;41.57;24.47
22964;BME280;11648;49.306;6.934;2022-08-19T08:28:24;98194.06;;;42.11;23.85
22964;BME280;11648;49.306;6.934;2022-08-19T08:30:56;98199.41;;;42.68;23.51
22964;BME280;11648;49.306;6.934;2022-08-19T08:33:25;98217.50;;;42.46;23.12
22964;BME280;11648;49.306;6.934;2022-08-19T08:36:02;98214.13;;;43.12;22.79
22964;BME280;11648;49.306;6.934;2022-08-19T08:38:32;98214.28;;;43.35;22.33
22964;BME280;11648;49.306;6.934;2022-08-19T08:41:12;98211.81;;;43.27;22.54
22964;BME280;11648;49.306;6.934;2022-08-19T08:43:48;98219.00;;;43.53;22.06
22964;BME280;11648;49.306;6.934;2022-08-19T08:46:17;98204.25;;;44.18;21.21
22964;BME280;11648;49.306;6.934;2022-08-19T08:52:17;98206.53;;;44.74;20.63
22964;BME280;11648;49.306;6.934;2022-08-19T08:54:47;98213.31;;;44.79;20.87
22964;BME280;11648;49.306;6.934;2022-08-19T08:57:29;98205.03;;;43.59;21.39
22964;BME280;11648;49.306;6.934;2022-08-19T09:00:12;98217.63;;;42.26;22.82
22964;BME280;11648;49.306;6.934;2022-08-19T09:02:42;98217.38;;;42.84;22.57
22964;BME280;11648;49.306;6.934;2022-08-19T09:05:10;98213.22;;;44.32;20.92
22964;BME280;11648;49.306;6.934;2022-08-19T09:10:34;98209.88;;;45.98;18.90
22964;BME280;11648;49.306;6.934;2022-08-19T09:16:11;98199.59;;;46.60;17.90
22964;BME280;11648;49.306;6.934;2022-08-19T09:18:52;98198.00;;;46.47;17.71
22964;BME280;11648;49.306;6.934;2022-08-19T09:21:21;98212.88;;;46.25;17.88
22964;BME280;11648;49.306;6.934;2022-08-19T09:23:58;98210.81;;;45.12;18.86
22964;BME280;11648;49.306;6.934;2022-08-19T09:26:26;98206.78;;;44.85;19.33
22964;BME280;11648;49.306;6.934;2022-08-19T09:29:13;98212.75;;;44.35;19.76
22964;BME280;11648;49.306;6.934;2022-08-19T09:31:40;98206.38;;;43.57;20.11
22964;BME280;11648;49.306;6.934;2022-08-19T09:34:07;98214.06;;;42.44;21.07
22964;BME280;11648;49.306;6.934;2022-08-19T09:36:47;98217.72;;;41.69;21.71
22964;BME280;11648;49.306;6.934;2022-08-19T09:39:20;98208.16;;;42.09;21.46
22964;BME280;11648;49.306;6.934;2022-08-19T09:41:48;98200.28;;;42.87;20.39
22964;BME280;11648;49.306;6.934;2022-08-19T09:44:17;98198.72;;;43.70;19.27
22964;BME280;11648;49.306;6.934;2022-08-19T09:46:45;98199.47;;;44.37;17.69
22964;BME280;11648;49.306;6.934;2022-08-19T09:49:15;98203.53;;;44.99;17.49
22964;BME280;11648;49.306;6.934;2022-08-19T09:51:44;98202.22;;;45.77;16.96
22964;BME280;11648;49.306;6.934;2022-08-19T09:54:17;98197.00;;;46.53;15.66
22964;BME280;11648;49.306;6.934;2022-08-19T09:56:50;98197.28;;;45.95;15.49
22964;BME280;11648;49.306;6.934;2022-08-19T09:59:17;98202.91;;;45.84;16.13
22964;BME280;11648;49.306;6.934;2022-08-19T10:01:43;98197.53;;;46.39;15.59
22964;BME280;11648;49.306;6.934;2022-08-19T10:04:11;98190.09;;;46.11;16.30
22964;BME280;11648;49.306;6.934;2022-08-19T10:06:47;98196.13;;;47.41;16.01
22964;BME280;11648;49.306;6.934;2022-08-19T10:09:19;98185.84;;;48.71;14.62
22964;BME280;11648;49.306;6.934;2022-08-19T10:11:59;98188.47;;;49.86;14.14
22964;BME280;11648;49.306;6.934;2022-08-19T10:14:28;98189.91;;;47.34;15.21
22964;BME280;11648;49.306;6.934;2022-08-19T10:16:55;98187.66;;;44.53;17.51
22964;BME280;11648;49.306;6.934;2022-08-19T10:19:25;98200.19;;;42.51;19.41
22964;BME280;11648;49.306;6.934;2022-08-19T10:21:54;98209.50;;;41.56;20.53
22964;BME280;11648;49.306;6.934;2022-08-19T10:24:26;98200.09;;;42.39;19.69
22964;BME280;11648;49.306;6.934;2022-08-19T10:26:54;98192.75;;;44.15;18.05
22964;BME280;11648;49.306;6.934;2022-08-19T10:29:26;98191.97;;;45.94;16.56
22964;BME280;11648;49.306;6.934;2022-08-19T10:32:00;98186.16;;;47.45;15.48
22964;BME280;11648;49.306;6.934;2022-08-19T10:34:29;98198.75;;;45.98;15.94
22964;BME280;11648;49.306;6.934;2022-08-19T10:36:57;98193.28;;;45.00;16.28
22964;BME280;11648;49.306;6.934;2022-08-19T10:39:29;98188.13;;;43.97;17.35
22964;BME280;11648;49.306;6.934;2022-08-19T10:41:58;98187.50;;;45.53;16.16
22964;BME280;11648;49.306;6.934;2022-08-19T10:44:25;98181.09;;;47.64;14.85
22964;BME280;11648;49.306;6.934;2022-08-19T10:46:58;98183.03;;;49.60;14.00
22964;BME280;11648;49.306;6.934;2022-08-19T10:49:26;98184.31;;;49.37;13.80
22964;BME280;11648;49.306;6.934;2022-08-19T10:51:54;98186.78;;;47.52;14.87
22964;BME280;11648;49.306;6.934;2022-08-19T10:54:46;98186.56;;;48.29;14.73
22964;BME280;11648;49.306;6.934;2022-08-19T10:57:34;98185.75;;;50.12;12.86
22964;BME280;11648;49.306;6.934;2022-08-19T11:00:22;98169.13;;;51.96;11.49
22964;BME280;11648;49.306;6.934;2022-08-19T11:02:50;98176.81;;;52.68;11.35
22964;BME280;11648;49.306;6.934;2022-08-19T11:05:18;98168.56;;;52.43;11.63
22964;BME280;11648;49.306;6.934;2022-08-19T11:07:45;98163.84;;;52.38;11.77
22964;BME280;11648;49.306;6.934;2022-08-19T11:10:14;98168.81;;;52.07;11.71
22964;BME280;11648;49.306;6.934;2022-08-19T11:12:47;98170.00;;;52.40;10.94
22964;BME280;11648;49.306;6.934;2022-08-19T11:15:13;98164.69;;;53.01;11.05
22964;BME280;11648;49.306;6.934;2022-08-19T11:17:41;98162.38;;;53.98;10.67
22964;BME280;11648;49.306;6.934;2022-08-19T11:20:11;98160.56;;;53.65;10.59
22964;BME280;11648;49.306;6.934;2022-08-19T11:22:39;98155.22;;;54.89;9.73
22964;BME280;11648;49.306;6.934;2022-08-19T11:25:09;98153.47;;;54.61;9.24
22964;BME280;11648;49.306;6.934;2022-08-19T11:27:39;98144.81;;;54.39;10.06
22964;BME280;11648;49.306;6.934;2022-08-19T11:30:09;98145.38;;;53.42;9.42
22964;BME280;11648;49.306;6.934;2022-08-19T11:32:39;98142.34;;;54.83;8.20
22964;BME280;11648;49.306;6.934;2022-08-19T11:35:12;98152.16;;;54.02;9.32
22964;BME280;11648;49.306;6.934;2022-08-19T11:37:39;98139.19;;;55.31;9.34
22964;BME280;11648;49.306;6.934;2022-08-19T11:40:07;98145.66;;;55.45;8.69
22964;BME280;11648;49.306;6.934;2022-08-19T11:42:34;98143.16;;;54.84;9.75
22964;BME280;11648;49.306;6.934;2022-08-19T11:45:20;98128.84;;;53.54;9.91
22964;BME280;11648;49.306;6.934;2022-08-19T11:47:47;98141.09;;;53.87;10.38
22964;BME280;11648;49.306;6.934;2022-08-19T11:50:15;98137.06;;;53.75;10.86
22964;BME280;11648;49.306;6.934;2022-08-19T11:52:43;98131.09;;;52.52;11.55
22964;BME280;11648;49.306;6.934;2022-08-19T11:55:12;98135.84;;;50.95;11.89
22964;BME280;11648;49.306;6.934;2022-08-19T11:57:40;98136.44;;;47.64;14.35
22964;BME280;11648;49.306;6.934;2022-08-19T12:00:11;98141.50;;;46.35;15.20
22964;BME280;11648;49.306;6.934;2022-08-19T12:02:40;98145.13;;;45.74;15.86
22964;BME280;11648;49.306;6.934;2022-08-19T12:05:07;98159.06;;;45.11;16.63
22964;BME280;11648;49.306;6.934;2022-08-19T12:07:38;98158.34;;;44.16;17.98
22964;BME280;11648;49.306;6.934;2022-08-19T12:10:06;98155.69;;;43.31;18.65
22964;BME280;11648;49.306;6.934;2022-08-19T12:12:33;98152.91;;;42.52;19.36
22964;BME280;11648;49.306;6.934;2022-08-19T12:15:00;98166.38;;;41.79;20.43
22964;BME280;11648;49.306;6.934;2022-08-19T12:17:28;98168.16;;;41.23;20.95
22964;BME280;11648;49.306;6.934;2022-08-19T12:19:55;98163.41;;;40.59;21.49
22964;BME280;11648;49.306;6.934;2022-08-19T12:22:22;98165.06;;;40.47;22.41
22964;BME280;11648;49.306;6.934;2022-08-19T12:24:49;98164.22;;;40.40;22.59
22964;BME280;11648;49.306;6.934;2022-08-19T12:27:18;98168.63;;;41.00;22.30
22964;BME280;11648;49.306;6.934;2022-08-19T12:30:03;98165.84;;;41.64;21.39
22964;BME280;11648;49.306;6.934;2022-08-19T12:32:30;98157.47;;;41.84;21.03
22964;BME280;11648;49.306;6.934;2022-08-19T12:34:57;98153.47;;;42.36;20.33
22964;BME280;11648;49.306;6.934;2022-08-19T12:37:23;98158.81;;;42.56;20.57
22964;BME280;11648;49.306;6.934;2022-08-19T12:39:50;98150.28;;;42.57;20.27
22964;BME280;11648;49.306;6.934;2022-08-19T12:42:17;98157.25;;;42.66;20.57
22964;BME280;11648;49.306;6.934;2022-08-19T12:44:44;98167.09;;;42.06;20.62
22964;BME280;11648;49.306;6.934;2022-08-19T12:47:12;98167.56;;;41.97;20.66
22964;BME280;11648;49.306;6.934;2022-08-19T12:49:41;98169.69;;;41.57;20.29
22964;BME280;11648;49.306;6.934;2022-08-19T12:52:23;98168.47;;;41.53;20.75
22964;BME280;11648;49.306;6.934;2022-08-19T12:54:52;98169.25;;;41.66;21.14
22964;BME280;11648;49.306;6.934;2022-08-19T12:57:28;98176.47;;;41.16;21.43
22964;BME280;11648;49.306;6.934;2022-08-19T13:00:06;98174.22;;;40.61;22.13
22964;BME280;11648;49.306;6.934;2022-08-19T13:02:38;98170.16;;;40.63;22.28
22964;BME280;11648;49.306;6.934;2022-08-19T13:05:07;98168.06;;;40.65;22.03
22964;BME280;11648;49.306;6.934;2022-08-19T13:07:35;98160.75;;;41.04;21.99
22964;BME280;11648;49.306;6.934;2022-08-19T13:10:05;98161.19;;;40.94;21.30
22964;BME280;11648;49.306;6.934;2022-08-19T13:12:32;98161.03;;;40.69;22.00
22964;BME280;11648;49.306;6.934;2022-08-19T13:14:59;98155.94;;;40.73;22.03
22964;BME280;11648;49.306;6.934;2022-08-19T13:17:26;98159.53;;;40.54;22.34
22964;BME280;11648;49.306;6.934;2022-08-19T13:19:53;98162.31;;;40.54;22.21
22964;BME280;11648;49.306;6.934;2022-08-19T13:22:20;98167.19;;;40.38;22.04
22964;BME280;11648;49.306;6.934;2022-08-19T13:24:47;98162.72;;;40.11;22.26
22964;BME280;11648;49.306;6.934;2022-08-19T13:27:14;98167.81;;;40.08;22.29
22964;BME280;11648;49.306;6.934;2022-08-19T13:29:41;98174.78;;;40.04;22.34